Time;durP1;ratioP1;P1;durP2;ratioP2;P2;SDS_P1;SDS_P2;PMS_P1;PMS_P2;Temp;Humidity;BMP_temperature;BMP_pressure;BME280_temperature;BME280_humidity;BME280_pressure;Samples;Min_cycle;Max_cycle;Signal;HPM_P1;HPM_P2
2020/12/18 00:00:19;;;;;;;22.75;10.30;;;3.30;74.50;;;;;;4934991;29;20070;-86
2020/12/18 00:02:45;;;;;;;25.60;10.40;;;3.30;74.50;;;;;;4937130;29;20064;-83
2020/12/18 00:05:10;;;;;;;21.38;10.02;;;3.20;74.50;;;;;;4936596;29;20507;-83
2020/12/18 00:07:36;;;;;;;22.40;9.45;;;3.20;74.50;;;;;;4952950;28;20028;-83
2020/12/18 00:10:02;;;;;;;24.98;10.48;;;3.20;74.60;;;;;;4920646;29;20468;-84
2020/12/18 00:12:29;;;;;;;20.67;9.27;;;3.20;74.70;;;;;;4931799;29;20485;-83
2020/12/18 00:14:55;;;;;;;24.67;10.50;;;3.10;74.70;;;;;;4937348;29;20046;-84
2020/12/18 00:17:21;;;;;;;23.92;10.45;;;3.10;74.90;;;;;;4948037;29;20024;-83
2020/12/18 00:19:46;;;;;;;25.63;11.43;;;3.10;75.10;;;;;;4945777;29;20031;-83
2020/12/18 00:22:12;;;;;;;22.00;9.85;;;3.20;75.30;;;;;;4954240;29;20158;-83
2020/12/18 00:24:38;;;;;;;21.58;10.30;;;3.20;75.40;;;;;;4953585;29;20035;-83
2020/12/18 00:27:03;;;;;;;19.17;9.32;;;3.20;75.20;;;;;;4939641;29;20036;-86
2020/12/18 00:29:29;;;;;;;20.23;9.63;;;3.20;75.20;;;;;;4931206;29;20050;-85
2020/12/18 00:31:54;;;;;;;17.83;9.43;;;3.20;75.30;;;;;;4930405;28;20047;-86
2020/12/18 00:34:20;;;;;;;21.00;9.57;;;3.30;75.60;;;;;;4938115;29;20050;-86
2020/12/18 00:36:51;;;;;;;20.73;9.52;;;3.40;76.00;;;;;;4927424;29;20063;-86
2020/12/18 00:39:16;;;;;;;20.42;9.32;;;3.50;76.20;;;;;;4920527;29;20035;-86
2020/12/18 00:41:42;;;;;;;20.42;9.95;;;3.60;76.20;;;;;;4932932;29;20051;-86
2020/12/18 00:44:08;;;;;;;20.02;9.02;;;3.70;76.30;;;;;;4926570;29;20031;-86
2020/12/18 00:46:34;;;;;;;20.35;9.65;;;3.70;76.10;;;;;;4921139;29;20039;-86
2020/12/18 00:49:00;;;;;;;18.40;9.07;;;3.80;76.00;;;;;;4941514;29;20028;-87
2020/12/18 00:51:27;;;;;;;19.00;8.20;;;3.80;75.80;;;;;;4953691;29;20059;-86
2020/12/18 00:53:53;;;;;;;21.70;9.32;;;3.80;75.70;;;;;;4927561;29;20023;-86
2020/12/18 00:56:19;;;;;;;19.08;8.82;;;3.80;75.80;;;;;;4938679;29;20063;-86
2020/12/18 00:58:45;;;;;;;20.17;9.15;;;3.90;75.70;;;;;;4941960;29;20082;-86
2020/12/18 01:01:11;;;;;;;20.25;8.77;;;3.80;75.60;;;;;;4926295;29;20036;-86
2020/12/18 01:03:37;;;;;;;19.20;9.05;;;3.80;75.50;;;;;;4919989;29;20511;-86
2020/12/18 01:06:14;;;;;;;22.92;9.57;;;3.80;75.40;;;;;;4946024;29;20062;-86
2020/12/18 01:08:39;;;;;;;18.55;8.07;;;3.80;75.40;;;;;;4927595;29;21140;-86
2020/12/18 01:11:06;;;;;;;18.15;8.30;;;3.80;75.40;;;;;;4919477;29;20031;-86
2020/12/18 01:13:32;;;;;;;20.38;8.10;;;3.80;75.60;;;;;;4939543;29;20026;-86
2020/12/18 01:15:58;;;;;;;20.23;8.30;;;3.80;75.60;;;;;;4952457;29;20015;-86
2020/12/18 01:18:24;;;;;;;20.60;9.10;;;3.80;75.80;;;;;;4969003;28;20031;-84
2020/12/18 01:20:50;;;;;;;19.30;8.88;;;3.90;75.90;;;;;;4965279;28;20028;-87
2020/12/18 01:23:16;;;;;;;17.75;8.18;;;3.90;76.40;;;;;;4920334;29;20036;-87
2020/12/18 01:25:42;;;;;;;18.85;8.85;;;3.90;76.30;;;;;;4925522;29;20046;-87
2020/12/18 01:28:08;;;;;;;19.38;8.90;;;3.90;75.50;;;;;;4942295;29;20034;-86
2020/12/18 01:30:33;;;;;;;18.42;9.07;;;3.80;75.40;;;;;;4918945;29;20157;-87
2020/12/18 01:32:59;;;;;;;21.85;9.50;;;3.80;76.20;;;;;;4941907;29;20487;-86
2020/12/18 01:35:24;;;;;;;21.05;9.25;;;3.80;75.50;;;;;;4934683;29;20085;-87
2020/12/18 01:37:50;;;;;;;19.48;9.38;;;3.80;75.30;;;;;;4937154;29;20389;-86
2020/12/18 01:40:17;;;;;;;22.23;10.65;;;3.80;75.40;;;;;;4923178;29;20066;-87
2020/12/18 01:42:42;;;;;;;19.65;9.93;;;3.70;75.30;;;;;;4925967;29;20607;-84
2020/12/18 01:45:08;;;;;;;27.52;10.63;;;3.70;75.30;;;;;;4931892;29;20134;-85
2020/12/18 01:47:34;;;;;;;26.02;11.60;;;3.70;75.40;;;;;;4955267;28;20149;-86
2020/12/18 01:50:01;;;;;;;24.67;11.23;;;3.70;75.40;;;;;;4920932;29;20403;-85
2020/12/18 01:52:28;;;;;;;22.63;10.05;;;3.60;75.30;;;;;;4925680;29;20031;-85
2020/12/18 01:54:57;;;;;;;24.50;10.82;;;3.60;75.30;;;;;;4930075;29;20078;-86
2020/12/18 01:57:24;;;;;;;23.75;9.80;;;3.60;75.30;;;;;;4922643;29;20440;-87
2020/12/18 01:59:51;;;;;;;23.35;10.23;;;3.60;75.40;;;;;;4941164;29;20361;-87
2020/12/18 02:02:17;;;;;;;23.00;9.40;;;3.60;75.30;;;;;;4936728;29;20024;-86
2020/12/18 02:04:45;;;;;;;21.63;9.10;;;3.60;75.30;;;;;;4934401;29;20040;-86
2020/12/18 02:07:15;;;;;;;25.40;10.75;;;3.50;75.20;;;;;;4941526;29;20032;-86
2020/12/18 02:09:42;;;;;;;20.13;8.45;;;3.50;75.40;;;;;;4934395;29;20042;-86
2020/12/18 02:12:08;;;;;;;23.05;10.25;;;3.50;75.70;;;;;;4949000;29;20031;-86
2020/12/18 02:14:34;;;;;;;22.15;9.65;;;3.60;75.70;;;;;;4943419;29;20038;-86
2020/12/18 02:16:59;;;;;;;22.05;8.63;;;3.60;75.70;;;;;;4931291;29;20027;-86
2020/12/18 02:19:28;;;;;;;20.55;10.18;;;3.60;76.40;;;;;;4936580;29;20032;-87
2020/12/18 02:21:54;;;;;;;25.35;9.70;;;3.60;75.80;;;;;;4923231;29;20044;-87
2020/12/18 02:24:27;;;;;;;19.77;8.65;;;3.60;75.70;;;;;;4942067;29;20044;-87
2020/12/18 02:26:53;;;;;;;19.88;8.32;;;3.60;75.70;;;;;;4919603;29;20023;-87
2020/12/18 02:29:20;;;;;;;21.65;9.13;;;3.60;75.60;;;;;;4925050;29;20135;-87
2020/12/18 02:31:48;;;;;;;22.27;9.82;;;3.60;75.70;;;;;;4922569;29;20026;-87
2020/12/18 02:34:25;;;;;;;20.65;8.85;;;3.60;75.80;;;;;;4928587;29;20032;-86
2020/12/18 02:36:51;;;;;;;21.88;8.95;;;3.60;75.80;;;;;;4949576;29;20027;-87
2020/12/18 02:39:18;;;;;;;22.10;8.90;;;3.70;75.60;;;;;;4925383;29;20023;-87
2020/12/18 02:41:43;;;;;;;21.15;8.40;;;3.60;75.60;;;;;;4934461;29;20024;-87
2020/12/18 02:44:10;;;;;;;20.17;9.45;;;3.60;75.50;;;;;;4934670;29;20031;-84
2020/12/18 02:46:35;;;;;;;22.60;9.60;;;3.60;75.70;;;;;;4917962;29;20919;-84
2020/12/18 02:49:02;;;;;;;25.35;8.70;;;3.60;75.70;;;;;;4924565;29;20047;-84
2020/12/18 02:51:27;;;;;;;21.63;9.05;;;3.60;75.60;;;;;;4931968;29;20033;-84
2020/12/18 02:53:53;;;;;;;21.27;9.77;;;3.60;75.50;;;;;;4934500;29;20054;-84
2020/12/18 02:56:26;;;;;;;22.52;9.75;;;3.50;75.30;;;;;;4935166;29;20047;-84
2020/12/18 02:58:52;;;;;;;20.67;9.60;;;3.50;75.40;;;;;;4928665;29;20121;-83
2020/12/18 03:01:19;;;;;;;22.63;9.57;;;3.50;75.50;;;;;;4937863;29;20043;-84
2020/12/18 03:03:44;;;;;;;23.50;10.32;;;3.40;75.40;;;;;;4926608;29;20059;-84
2020/12/18 03:06:10;;;;;;;25.95;10.23;;;3.40;75.40;;;;;;4939695;29;20071;-84
2020/12/18 03:08:36;;;;;;;22.83;9.38;;;3.40;75.40;;;;;;4966618;28;20028;-84
2020/12/18 03:11:01;;;;;;;20.48;9.23;;;3.30;75.30;;;;;;4947867;29;20380;-84
2020/12/18 03:13:27;;;;;;;23.70;10.30;;;3.30;75.50;;;;;;4947685;29;20055;-84
2020/12/18 03:15:53;;;;;;;22.77;9.45;;;3.30;75.80;;;;;;4954924;29;20035;-84
2020/12/18 03:18:18;;;;;;;20.52;9.07;;;3.40;76.10;;;;;;4953881;29;20163;-84
2020/12/18 03:20:44;;;;;;;24.05;10.88;;;3.50;76.20;;;;;;4948726;29;20031;-84
2020/12/18 03:23:09;;;;;;;18.83;8.40;;;3.50;76.00;;;;;;4947618;29;20031;-84
2020/12/18 03:25:35;;;;;;;24.48;10.50;;;3.50;76.00;;;;;;4953733;29;20135;-85
2020/12/18 03:28:01;;;;;;;26.75;11.00;;;3.60;76.30;;;;;;4934101;29;20409;-85
2020/12/18 03:30:27;;;;;;;24.45;9.55;;;3.60;76.30;;;;;;4940021;29;20064;-84
2020/12/18 03:32:53;;;;;;;26.08;8.95;;;3.70;76.50;;;;;;4924092;29;20055;-85
2020/12/18 03:35:19;;;;;;;29.20;11.32;;;3.80;76.60;;;;;;4943346;29;20051;-85
2020/12/18 03:37:44;;;;;;;25.80;10.00;;;3.80;76.50;;;;;;4943115;29;20043;-85
2020/12/18 03:40:10;;;;;;;21.80;9.57;;;3.90;76.40;;;;;;4922170;29;20035;-85
2020/12/18 03:42:35;;;;;;;22.25;8.38;;;3.90;76.60;;;;;;4938598;29;20505;-85
2020/12/18 03:45:01;;;;;;;23.45;9.73;;;4.00;76.70;;;;;;4921808;29;20040;-85
2020/12/18 03:47:27;;;;;;;21.98;8.55;;;4.00;76.70;;;;;;4922409;29;20028;-85
2020/12/18 03:49:52;;;;;;;23.83;9.77;;;4.00;76.50;;;;;;4922436;29;20490;-85
2020/12/18 03:52:18;;;;;;;32.80;11.32;;;4.10;76.50;;;;;;4927972;29;20028;-84
2020/12/18 03:54:43;;;;;;;25.30;9.93;;;4.10;76.40;;;;;;4921641;29;20555;-85
2020/12/18 03:57:09;;;;;;;23.23;9.63;;;4.20;76.60;;;;;;4922552;29;20079;-85
2020/12/18 03:59:34;;;;;;;25.95;11.75;;;4.20;76.60;;;;;;4937058;29;20039;-85
2020/12/18 04:02:00;;;;;;;22.00;10.10;;;4.30;76.90;;;;;;4947245;29;20028;-85
2020/12/18 04:04:27;;;;;;;24.15;9.48;;;4.30;76.70;;;;;;4940569;29;20055;-85
2020/12/18 04:06:53;;;;;;;27.67;10.52;;;4.40;76.70;;;;;;4923818;29;20046;-85
2020/12/18 04:09:18;;;;;;;22.83;9.85;;;4.40;76.60;;;;;;4941524;28;20472;-85
2020/12/18 04:11:44;;;;;;;25.65;10.00;;;4.40;76.70;;;;;;4923775;29;20509;-85
2020/12/18 04:14:10;;;;;;;27.23;9.80;;;4.40;76.70;;;;;;4953290;29;20027;-85
2020/12/18 04:16:35;;;;;;;24.80;9.65;;;4.50;76.90;;;;;;4926778;29;20111;-85
2020/12/18 04:19:01;;;;;;;19.85;9.57;;;4.60;77.10;;;;;;4948709;29;20019;-85
2020/12/18 04:21:27;;;;;;;25.33;8.98;;;4.60;76.90;;;;;;4938030;29;20029;-85
2020/12/18 04:23:53;;;;;;;25.50;9.95;;;4.70;76.70;;;;;;4921815;29;20075;-85
2020/12/18 04:26:18;;;;;;;24.80;9.20;;;4.70;76.80;;;;;;4937930;29;20065;-85
2020/12/18 04:28:44;;;;;;;25.20;9.55;;;4.70;76.60;;;;;;4957954;28;20032;-85
2020/12/18 04:31:09;;;;;;;27.40;10.45;;;4.70;76.70;;;;;;4922101;29;20035;-85
2020/12/18 04:33:36;;;;;;;18.33;8.45;;;4.70;76.60;;;;;;4925923;29;20020;-85
2020/12/18 04:36:02;;;;;;;19.17;8.27;;;4.70;76.60;;;;;;4938943;29;20476;-85
2020/12/18 04:38:27;;;;;;;23.52;9.60;;;4.70;76.60;;;;;;4937759;29;20035;-85
2020/12/18 04:40:53;;;;;;;25.58;9.20;;;4.80;76.60;;;;;;4921466;29;20024;-85
2020/12/18 04:43:19;;;;;;;22.35;9.77;;;4.70;76.40;;;;;;4925661;29;20039;-86
2020/12/18 04:45:46;;;;;;;26.58;9.40;;;4.70;76.50;;;;;;4937484;29;20039;-86
2020/12/18 04:48:13;;;;;;;21.80;9.18;;;4.80;76.70;;;;;;4920988;29;20460;-87
2020/12/18 04:50:39;;;;;;;22.20;8.95;;;4.80;76.80;;;;;;4936087;29;20123;-87
2020/12/18 04:53:05;;;;;;;22.70;9.00;;;4.80;76.70;;;;;;4920466;29;20028;-87
2020/12/18 04:55:35;;;;;;;19.48;9.25;;;4.80;76.70;;;;;;4953032;28;20446;-87
2020/12/18 04:58:02;;;;;;;24.92;10.00;;;4.80;76.80;;;;;;4926415;29;20027;-86
2020/12/18 05:00:28;;;;;;;26.95;10.25;;;4.80;76.80;;;;;;4940185;29;20126;-86
2020/12/18 05:02:57;;;;;;;22.30;9.57;;;4.80;76.60;;;;;;4935966;29;20115;-86
2020/12/18 05:05:23;;;;;;;25.42;10.10;;;4.80;76.50;;;;;;4924739;29;20078;-86
2020/12/18 05:07:48;;;;;;;22.00;9.30;;;4.80;76.70;;;;;;4920421;29;20074;-86
2020/12/18 05:10:14;;;;;;;22.00;9.52;;;4.80;76.90;;;;;;4920263;29;20035;-86
2020/12/18 05:12:40;;;;;;;20.75;8.88;;;4.80;76.70;;;;;;4921753;29;20135;-87
2020/12/18 05:15:06;;;;;;;25.02;10.02;;;4.80;76.30;;;;;;4917201;29;20062;-84
2020/12/18 05:17:32;;;;;;;21.45;9.40;;;4.80;76.70;;;;;;4935878;29;20132;-84
2020/12/18 05:19:59;;;;;;;24.70;9.65;;;4.80;76.90;;;;;;4919193;29;20031;-84
2020/12/18 05:22:25;;;;;;;25.20;10.00;;;4.90;77.00;;;;;;4927409;29;20053;-87
2020/12/18 05:24:53;;;;;;;21.65;9.18;;;4.90;77.00;;;;;;4921806;29;20032;-87
2020/12/18 05:27:21;;;;;;;23.20;9.88;;;4.80;76.60;;;;;;4938511;29;20454;-84
2020/12/18 05:29:48;;;;;;;25.40;10.23;;;4.80;76.60;;;;;;4922596;29;20058;-84
2020/12/18 05:32:13;;;;;;;27.67;10.63;;;4.80;76.70;;;;;;4946679;28;20051;-84
2020/12/18 05:34:40;;;;;;;23.48;9.82;;;4.80;76.70;;;;;;4921326;29;20054;-84
2020/12/18 05:37:06;;;;;;;23.20;9.05;;;4.80;76.60;;;;;;4940203;29;20060;-89
2020/12/18 05:39:37;;;;;;;22.95;9.52;;;4.80;76.50;;;;;;4929101;29;20059;-89
2020/12/18 05:42:04;;;;;;;20.67;8.77;;;4.80;76.80;;;;;;4922698;29;20050;-89
2020/12/18 05:44:31;;;;;;;19.73;8.90;;;4.80;77.10;;;;;;4920121;29;20067;-88
2020/12/18 05:47:10;;;;;;;22.05;10.88;;;4.80;77.20;;;;;;4924128;29;20031;-88
2020/12/18 05:49:38;;;;;;;23.20;10.57;;;4.80;76.80;;;;;;4937723;29;20028;-91
2020/12/18 05:52:05;;;;;;;22.38;8.95;;;4.80;77.00;;;;;;4942183;29;20503;-89
2020/12/18 05:54:36;;;;;;;22.83;9.80;;;4.80;77.00;;;;;;4924138;29;20431;-89
2020/12/18 05:57:10;;;;;;;22.40;9.65;;;4.90;77.10;;;;;;4941738;29;20027;-92
2020/12/18 05:59:43;;;;;;;22.65;9.77;;;4.90;77.00;;;;;;4930390;29;20019;-92
2020/12/18 06:02:14;;;;;;;23.90;9.80;;;4.90;77.70;;;;;;4925608;29;20035;-91
2020/12/18 06:04:41;;;;;;;21.75;9.48;;;4.90;76.80;;;;;;4924651;29;20028;-89
2020/12/18 06:07:08;;;;;;;20.45;8.52;;;4.80;76.80;;;;;;4941723;29;20055;-89
2020/12/18 06:09:38;;;;;;;18.13;7.43;;;4.90;77.10;;;;;;4923109;29;20023;-84
2020/12/18 06:12:12;;;;;;;19.00;8.45;;;4.90;77.20;;;;;;4933346;29;20045;-85
2020/12/18 06:14:39;;;;;;;19.05;7.80;;;4.90;76.90;;;;;;4955882;28;20039;-87
2020/12/18 06:17:07;;;;;;;23.27;8.40;;;4.90;77.00;;;;;;4952851;28;20090;-85
2020/12/18 06:19:38;;;;;;;21.95;9.23;;;4.90;77.20;;;;;;4929589;29;20023;-86
2020/12/18 06:22:13;;;;;;;20.80;8.82;;;4.90;77.20;;;;;;4928215;29;20020;-86
2020/12/18 06:24:41;;;;;;;23.17;9.50;;;4.90;77.00;;;;;;4951054;28;20036;-86
2020/12/18 06:27:11;;;;;;;21.60;9.70;;;4.90;77.00;;;;;;4936469;29;20078;-84
2020/12/18 06:29:36;;;;;;;16.92;7.80;;;4.90;77.20;;;;;;4941503;29;20047;-83
2020/12/18 06:32:22;;;;;;;20.60;8.50;;;5.00;77.50;;;;;;4963228;28;20024;-80
2020/12/18 06:34:48;;;;;;;18.48;7.93;;;5.00;77.20;;;;;;4931081;29;20034;-80
2020/12/18 06:37:35;;;;;;;19.20;9.27;;;5.00;77.40;;;;;;4926522;29;20015;-80
2020/12/18 06:40:01;;;;;;;19.67;8.80;;;5.00;77.30;;;;;;4922780;29;20023;-80
2020/12/18 06:42:30;;;;;;;24.02;10.20;;;5.00;77.30;;;;;;4940038;29;20369;-81
2020/12/18 06:45:00;;;;;;;22.67;9.20;;;5.00;77.20;;;;;;4924180;29;20038;-80
2020/12/18 06:47:28;;;;;;;21.67;10.13;;;5.00;77.20;;;;;;4923882;29;20027;-80
2020/12/18 06:50:00;;;;;;;21.35;8.45;;;5.00;77.20;;;;;;4924642;29;20078;-80
2020/12/18 06:52:41;;;;;;;20.40;9.15;;;5.00;77.10;;;;;;4939832;29;20395;-87
2020/12/18 06:55:09;;;;;;;20.85;9.85;;;5.10;77.50;;;;;;4922341;29;20024;-86
2020/12/18 06:57:35;;;;;;;18.92;9.25;;;5.10;77.30;;;;;;4943263;29;20024;-89
2020/12/18 07:00:23;;;;;;;20.45;9.20;;;5.00;77.30;;;;;;4948419;29;20032;-90
2020/12/18 07:02:49;;;;;;;20.58;8.98;;;5.10;77.50;;;;;;4925689;29;20031;-90
2020/12/18 07:05:40;;;;;;;21.90;9.48;;;5.10;77.60;;;;;;4928271;29;20465;-91
2020/12/18 07:08:12;;;;;;;19.48;7.93;;;5.20;77.90;;;;;;4925576;29;20031;-89
2020/12/18 07:10:39;;;;;;;19.75;8.75;;;5.30;77.70;;;;;;4922370;29;20034;-90
2020/12/18 07:13:06;;;;;;;19.65;8.98;;;5.20;77.20;;;;;;4925741;29;20031;-91
2020/12/18 07:15:46;;;;;;;19.38;9.20;;;5.20;77.30;;;;;;4926506;29;20037;-90
2020/12/18 07:18:26;;;;;;;19.20;9.00;;;5.20;77.40;;;;;;4926330;29;20031;-89
2020/12/18 07:21:00;;;;;;;22.45;10.45;;;5.20;77.40;;;;;;4933895;29;20023;-91
2020/12/18 07:23:28;;;;;;;18.38;9.02;;;5.10;77.20;;;;;;4925414;29;20027;-90
2020/12/18 07:25:55;;;;;;;19.80;8.38;;;5.20;77.50;;;;;;4925637;29;20048;-92
2020/12/18 07:28:21;;;;;;;19.95;9.05;;;5.10;77.20;;;;;;4926608;29;20365;-92
2020/12/18 07:30:48;;;;;;;20.08;8.80;;;5.20;77.40;;;;;;4929794;29;20119;-89
2020/12/18 07:33:18;;;;;;;21.42;9.25;;;5.20;77.30;;;;;;4925508;29;20026;-90
2020/12/18 07:35:54;;;;;;;17.83;8.32;;;5.20;77.60;;;;;;4923153;29;20027;-90
2020/12/18 07:38:28;;;;;;;32.17;10.98;;;5.20;77.40;;;;;;4925355;29;20020;-89
2020/12/18 07:40:57;;;;;;;28.98;9.50;;;5.20;77.50;;;;;;4924858;29;20030;-90
2020/12/18 07:43:27;;;;;;;23.40;8.55;;;5.20;77.50;;;;;;4929129;29;20019;-89
2020/12/18 07:45:55;;;;;;;20.17;8.80;;;5.30;77.80;;;;;;4927024;29;20035;-88
2020/12/18 07:48:28;;;;;;;28.10;9.30;;;5.40;77.80;;;;;;4923697;29;20016;-90
2020/12/18 07:50:57;;;;;;;20.13;8.88;;;5.30;77.60;;;;;;4926770;29;20079;-88
2020/12/18 07:53:22;;;;;;;23.38;9.93;;;5.30;77.50;;;;;;4933733;29;20078;-86
2020/12/18 07:56:03;;;;;;;20.48;9.18;;;5.50;77.80;;;;;;4929863;29;20035;-91
2020/12/18 07:58:31;;;;;;;21.83;9.32;;;5.50;78.00;;;;;;4926529;29;20118;-89
2020/12/18 08:01:08;;;;;;;20.75;10.52;;;5.40;77.70;;;;;;4923838;29;20024;-88
2020/12/18 08:03:34;;;;;;;20.75;9.90;;;5.50;77.70;;;;;;4922150;29;20087;-89
2020/12/18 08:06:04;;;;;;;20.05;9.07;;;5.50;77.50;;;;;;4942270;29;20480;-89
2020/12/18 08:08:31;;;;;;;18.63;8.48;;;5.60;77.80;;;;;;4921794;29;20031;-89
2020/12/18 08:11:01;;;;;;;18.45;8.27;;;5.50;77.90;;;;;;4921933;29;20036;-90
2020/12/18 08:13:28;;;;;;;19.35;8.52;;;5.50;77.60;;;;;;4923436;29;20114;-89
2020/12/18 08:16:29;;;;;;;19.13;8.45;;;5.60;77.70;;;;;;4927544;29;20032;-88
2020/12/18 08:19:05;;;;;;;18.42;7.68;;;5.70;77.70;;;;;;4922052;29;20035;-88
2020/12/18 08:21:33;;;;;;;19.15;8.63;;;5.50;77.30;;;;;;4922728;29;20023;-87
2020/12/18 08:24:20;;;;;;;22.30;10.02;;;5.50;77.70;;;;;;4926743;29;20034;-88
2020/12/18 08:26:58;;;;;;;22.77;9.75;;;5.60;77.70;;;;;;4921257;29;20061;-89
2020/12/18 08:29:24;;;;;;;17.92;8.88;;;5.70;78.00;;;;;;4925038;29;20032;-87
2020/12/18 08:31:56;;;;;;;18.15;8.63;;;5.70;77.80;;;;;;4938759;29;20503;-86
2020/12/18 08:34:28;;;;;;;21.02;9.45;;;5.70;77.60;;;;;;4925778;29;20027;-86
2020/12/18 08:36:59;;;;;;;18.70;9.23;;;5.70;77.70;;;;;;4923062;29;20027;-87
2020/12/18 08:39:33;;;;;;;21.38;9.15;;;5.70;77.90;;;;;;4922428;29;20030;-89
2020/12/18 08:42:01;;;;;;;21.30;9.30;;;5.80;78.00;;;;;;4928364;29;20038;-90
2020/12/18 08:44:36;;;;;;;19.15;9.13;;;5.80;77.90;;;;;;4943787;29;20267;-90
2020/12/18 08:47:03;;;;;;;18.13;8.55;;;5.80;78.00;;;;;;4932726;29;20023;-90
2020/12/18 08:49:29;;;;;;;20.30;8.68;;;5.90;78.00;;;;;;4923440;29;20020;-90
2020/12/18 08:52:04;;;;;;;20.95;9.02;;;5.90;78.40;;;;;;4928565;29;20035;-90
2020/12/18 08:54:30;;;;;;;;;;;5.90;78.10;;;;;;4927374;29;20031;-90
2020/12/18 08:57:31;;;;;;;17.17;7.43;;;6.00;78.10;;;;;;4928549;29;19942;-91
2020/12/18 09:00:15;;;;;;;14.25;7.32;;;6.00;78.00;;;;;;4932897;29;20036;-92
2020/12/18 09:03:02;;;;;;;15.45;8.00;;;6.00;78.40;;;;;;4929893;29;20063;-91
2020/12/18 09:05:33;;;;;;;20.73;7.72;;;6.20;78.30;;;;;;4930090;29;20502;-92
2020/12/18 09:08:07;;;;;;;16.98;7.45;;;6.20;78.40;;;;;;4931648;29;20067;-90
2020/12/18 09:10:43;;;;;;;22.77;9.38;;;6.30;78.20;;;;;;4921134;29;20498;-90
2020/12/18 09:13:19;;;;;;;18.20;8.02;;;6.20;78.00;;;;;;4943929;29;20030;-92
2020/12/18 09:16:00;;;;;;;19.23;8.80;;;6.20;78.10;;;;;;4923194;29;20363;-91
2020/12/18 09:18:31;;;;;;;20.27;8.63;;;6.30;78.00;;;;;;4927763;29;20027;-90
2020/12/18 09:21:14;;;;;;;18.48;8.88;;;6.40;78.50;;;;;;4944404;29;20030;-90
2020/12/18 09:23:41;;;;;;;17.13;7.63;;;6.50;78.80;;;;;;4926049;29;20027;-91
2020/12/18 09:26:07;;;;;;;20.65;7.80;;;6.50;78.20;;;;;;4926003;29;20046;-90
2020/12/18 09:28:41;;;;;;;20.75;9.75;;;6.60;78.40;;;;;;4921667;29;20377;-91
2020/12/18 09:31:08;;;;;;;18.88;8.93;;;6.60;78.70;;;;;;4924722;29;20126;-90
2020/12/18 09:33:38;;;;;;;17.05;8.05;;;6.70;78.40;;;;;;4926300;29;20031;-91
2020/12/18 09:36:10;;;;;;;17.23;8.10;;;6.70;77.60;;;;;;4930566;29;20030;-90
2020/12/18 09:38:44;;;;;;;16.92;7.47;;;6.70;78.20;;;;;;4933172;29;20028;-90
2020/12/18 09:41:11;;;;;;;;;;;6.70;78.40;;;;;;4930049;29;20043;-91
2020/12/18 09:43:37;;;;;;;17.45;7.97;;;6.80;78.40;;;;;;4927894;29;19906;-92
2020/12/18 09:46:04;;;;;;;17.00;8.00;;;6.80;78.30;;;;;;4929442;29;20039;-92
2020/12/18 09:48:30;;;;;;;17.35;7.88;;;6.70;78.10;;;;;;4938453;29;20083;-92
2020/12/18 09:50:58;;;;;;;19.05;8.32;;;6.90;78.40;;;;;;4928238;29;20047;-91
2020/12/18 09:53:26;;;;;;;18.13;7.65;;;6.90;78.30;;;;;;4924267;29;20047;-90
2020/12/18 09:55:53;;;;;;;18.55;8.30;;;6.90;78.70;;;;;;4937273;29;20039;-90
2020/12/18 09:58:20;;;;;;;18.00;8.27;;;7.00;78.60;;;;;;4943146;29;20032;-92
2020/12/18 10:00:49;;;;;;;17.83;8.60;;;7.20;79.50;;;;;;4942763;29;20111;-93
2020/12/18 10:03:23;;;;;;;18.60;8.00;;;7.10;78.60;;;;;;4959034;28;20028;-92
2020/12/18 10:05:52;;;;;;;;;;;7.30;78.70;;;;;;4928761;29;20506;-90
2020/12/18 10:08:21;;;;;;;15.80;7.80;;;7.30;78.70;;;;;;4924919;29;19907;-89
2020/12/18 10:10:56;;;;;;;16.33;8.48;;;7.40;78.60;;;;;;4928101;29;20027;-89
2020/12/18 10:13:24;;;;;;;14.68;7.38;;;7.40;78.40;;;;;;4930673;29;20020;-88
2020/12/18 10:15:53;;;;;;;19.10;8.43;;;7.50;79.10;;;;;;4937113;29;20083;-87
2020/12/18 10:18:22;;;;;;;18.00;8.05;;;7.50;78.60;;;;;;4929321;29;20031;-87
2020/12/18 10:20:48;;;;;;;17.27;8.13;;;7.50;78.40;;;;;;4928014;29;20062;-90
2020/12/18 10:23:17;;;;;;;16.25;7.53;;;7.50;78.50;;;;;;4926043;29;20059;-89
2020/12/18 10:25:42;;;;;;;14.77;7.95;;;7.70;79.20;;;;;;4928109;29;20074;-88
2020/12/18 10:28:08;;;;;;;16.65;8.43;;;7.70;78.30;;;;;;4941960;29;20051;-89
2020/12/18 10:30:38;;;;;;;17.45;9.48;;;7.70;78.50;;;;;;4926243;29;20529;-90
2020/12/18 10:33:08;;;;;;;18.33;9.32;;;7.60;78.20;;;;;;4923818;29;20345;-92
2020/12/18 10:35:33;;;;;;;16.25;7.88;;;7.60;78.40;;;;;;4946362;29;20075;-90
2020/12/18 10:38:00;;;;;;;16.35;8.23;;;7.70;78.60;;;;;;4930238;29;20423;-90
2020/12/18 10:40:30;;;;;;;18.65;8.13;;;7.80;78.90;;;;;;4925421;29;20563;-89
2020/12/18 10:43:05;;;;;;;16.30;8.50;;;7.90;78.60;;;;;;4939378;29;20059;-90
2020/12/18 10:45:33;;;;;;;16.25;8.43;;;7.90;78.80;;;;;;4919562;29;20045;-91
2020/12/18 10:47:58;;;;;;;15.18;7.55;;;7.90;78.80;;;;;;4943885;29;20031;-92
2020/12/18 10:50:24;;;;;;;18.92;8.98;;;8.10;79.10;;;;;;4924583;29;20468;-91
2020/12/18 10:52:51;;;;;;;19.23;9.73;;;8.20;79.40;;;;;;4926458;29;20023;-89
2020/12/18 10:55:16;;;;;;;14.85;7.55;;;8.10;78.10;;;;;;4923532;29;20101;-90
2020/12/18 10:57:42;;;;;;;15.77;8.30;;;8.20;78.80;;;;;;4931761;29;20093;-89
2020/12/18 11:00:08;;;;;;;16.58;8.25;;;8.20;79.20;;;;;;4932652;29;20024;-88
2020/12/18 11:02:35;;;;;;;17.15;9.13;;;8.30;78.80;;;;;;4930960;29;20031;-89
2020/12/18 11:05:01;;;;;;;16.75;8.68;;;8.30;78.80;;;;;;4940857;29;20042;-90
2020/12/18 11:07:27;;;;;;;17.02;8.60;;;8.30;78.70;;;;;;4923703;29;20028;-90
2020/12/18 11:09:52;;;;;;;18.05;9.50;;;8.40;78.80;;;;;;4924937;29;20023;-88
2020/12/18 11:12:19;;;;;;;18.33;9.55;;;8.40;78.90;;;;;;4924737;29;20024;-87
2020/12/18 11:14:46;;;;;;;20.15;10.35;;;8.50;78.80;;;;;;4938351;29;20062;-88
2020/12/18 11:17:11;;;;;;;18.52;9.63;;;8.50;79.20;;;;;;4922261;29;20027;-87
2020/12/18 11:19:37;;;;;;;19.27;8.75;;;8.50;78.70;;;;;;4942072;29;20118;-88
2020/12/18 11:22:03;;;;;;;18.98;10.25;;;8.60;78.60;;;;;;4942312;29;20550;-87
2020/12/18 11:24:29;;;;;;;17.35;8.18;;;8.70;79.40;;;;;;4943514;29;20028;-91
2020/12/18 11:26:55;;;;;;;19.92;10.07;;;8.70;78.60;;;;;;4930071;29;20036;-92
2020/12/18 11:29:21;;;;;;;20.27;10.85;;;8.80;79.00;;;;;;4933418;29;20039;-89
2020/12/18 11:31:48;;;;;;;19.63;9.38;;;8.80;79.00;;;;;;4936913;29;20526;-89
2020/12/18 11:34:17;;;;;;;21.38;10.63;;;8.80;78.20;;;;;;4922743;29;20035;-87
2020/12/18 11:36:43;;;;;;;18.15;9.65;;;8.80;78.40;;;;;;4924501;29;20016;-89
2020/12/18 11:39:09;;;;;;;17.42;9.68;;;8.80;78.90;;;;;;4923504;29;20511;-88
2020/12/18 11:41:35;;;;;;;18.50;9.10;;;8.90;79.30;;;;;;4923974;29;20065;-88
2020/12/18 11:44:03;;;;;;;18.17;9.48;;;9.00;78.90;;;;;;4923072;29;20020;-89
2020/12/18 11:46:29;;;;;;;19.77;10.20;;;9.10;78.80;;;;;;4945387;29;20075;-89
2020/12/18 11:48:58;;;;;;;18.17;9.10;;;9.10;78.80;;;;;;4928278;29;20024;-88
2020/12/18 11:51:29;;;;;;;17.65;9.65;;;9.20;78.60;;;;;;4922433;29;20028;-88
2020/12/18 11:53:55;;;;;;;19.48;10.70;;;9.20;78.50;;;;;;4928443;29;20079;-88
2020/12/18 11:56:21;;;;;;;20.48;9.93;;;9.20;78.50;;;;;;4928706;29;20441;-90
2020/12/18 11:58:47;;;;;;;21.55;10.77;;;9.20;79.50;;;;;;4921649;29;20115;-88
2020/12/18 12:01:21;;;;;;;20.45;11.05;;;9.40;79.20;;;;;;4928917;29;20042;-91
2020/12/18 12:03:50;;;;;;;18.95;10.00;;;9.60;80.20;;;;;;4925157;29;20058;-90
2020/12/18 12:06:17;;;;;;;20.20;10.23;;;9.80;80.20;;;;;;4927861;29;20134;-92
2020/12/18 12:08:43;;;;;;;22.75;11.15;;;10.00;79.20;;;;;;4930082;29;20032;-85
2020/12/18 12:11:08;;;;;;;24.33;11.20;;;10.10;80.00;;;;;;4926203;29;20024;-87
2020/12/18 12:13:35;;;;;;;20.27;10.50;;;10.30;79.90;;;;;;4922945;29;20019;-91
2020/12/18 12:16:04;;;;;;;21.27;11.13;;;10.50;79.70;;;;;;4922526;29;20075;-93
2020/12/18 12:18:30;;;;;;;22.80;11.95;;;10.70;80.20;;;;;;4922463;29;20028;-92
2020/12/18 12:20:55;;;;;;;20.42;10.80;;;11.00;80.60;;;;;;4924495;29;20078;-91
2020/12/18 12:23:21;;;;;;;21.05;10.48;;;11.30;80.50;;;;;;4926994;29;20098;-90
2020/12/18 12:25:47;;;;;;;19.88;10.50;;;11.40;79.50;;;;;;4931450;29;20079;-90
2020/12/18 12:28:17;;;;;;;19.88;11.15;;;11.50;79.20;;;;;;4921432;29;20027;-90
2020/12/18 12:30:43;;;;;;;20.27;11.10;;;11.50;78.40;;;;;;4921220;29;20053;-90
2020/12/18 12:33:09;;;;;;;18.75;9.75;;;11.60;79.30;;;;;;4923148;29;20027;-90
2020/12/18 12:35:35;;;;;;;18.15;9.68;;;11.80;79.60;;;;;;4923713;29;20039;-91
2020/12/18 12:38:04;;;;;;;17.58;9.50;;;11.80;78.90;;;;;;4926273;29;20070;-92
2020/12/18 12:40:30;;;;;;;16.08;9.00;;;11.90;78.40;;;;;;4924736;29;20036;-92
2020/12/18 12:42:56;;;;;;;16.77;9.82;;;11.90;78.60;;;;;;4922792;29;20036;-92
2020/12/18 12:45:22;;;;;;;17.67;10.43;;;11.90;78.00;;;;;;4943981;29;20032;-90
2020/12/18 12:47:48;;;;;;;18.33;9.45;;;12.00;78.40;;;;;;4923259;29;20035;-90
2020/12/18 12:50:15;;;;;;;17.40;9.15;;;12.00;78.50;;;;;;4922761;29;20023;-90